Terminal Aerodrome Forecast
Issued by NWS Shreveport, LA

Home | Current Version | Previous Version | Text Only | Print | Product List | Glossary On
Versions: 1 2 3 4 5 6 7 8 9 10 11 12 13 14 15 16
000
FTUS44 KSHV 182344
TAFGGG
TAF
KGGG 182344Z 1900/1924 26004KT P6SM FEW045 SCT250
     FM190200 20003KT P6SM FEW150 BKN250
     FM191200 21005KT P6SM SCT050 SCT250
     FM191500 25006KT P6SM BKN070 BKN250=

USA.gov is the U.S. government's official web portal to all federal, state and local government web resources and services.